Amasa, Michigan
Current Conditions -  °F | °C
As of 6:24 AM on Thursday 29 Jan 2015 (Local Time) from KIMT Reporting Station
Haze Haze  
Wind Chill: 17°   Ceiling: 1700
Heat Index: 27°   Visibility: 5mi
Dew Point: 24°   Wind: 12mph
Humidity: 89%   Direction: 310°NW
Pressure: 29.76"   Gusts: NA
Location:  46.23°N, 88.45°W
Report Text: KIMT 291224Z AUTO 31010KT 5SM BR FEW009 OVC017 M03/M04 A2976 RMK AO2 T10281044
Loading
Personal Weather Stations






























Interactive Weather Map New forecast layout! Learn more

10-Day Weather Forecast

Advertisements
Track Severe Weather on mobile